sensor_id;sensor_type;location;lat;lon;timestamp;pressure;altitude;pressure_sealevel;temperature;humidity
50702;BME280;36670;50.094;8.496;2023-04-10T00:00:48;101040.25;;;9.18;55.06
50702;BME280;36670;50.094;8.496;2023-04-10T00:03:17;101045.91;;;9.49;53.37
50702;BME280;36670;50.094;8.496;2023-04-10T00:05:43;101038.94;;;9.46;54.25
50702;BME280;36670;50.094;8.496;2023-04-10T00:08:08;101048.88;;;9.29;54.41
50702;BME280;36670;50.094;8.496;2023-04-10T00:10:34;101049.97;;;8.96;54.73
50702;BME280;36670;50.094;8.496;2023-04-10T00:12:59;101051.19;;;8.75;55.51
50702;BME280;36670;50.094;8.496;2023-04-10T00:15:27;101057.69;;;9.12;54.60
50702;BME280;36670;50.094;8.496;2023-04-10T00:17:52;101058.28;;;8.89;55.14
50702;BME280;36670;50.094;8.496;2023-04-10T00:20:20;101052.84;;;8.44;56.34
50702;BME280;36670;50.094;8.496;2023-04-10T00:22:46;101038.19;;;8.88;55.64
50702;BME280;36670;50.094;8.496;2023-04-10T00:25:11;101039.66;;;9.16;54.75
50702;BME280;36670;50.094;8.496;2023-04-10T00:27:36;101037.91;;;9.22;54.62
50702;BME280;36670;50.094;8.496;2023-04-10T00:30:02;101053.19;;;8.61;56.19
50702;BME280;36670;50.094;8.496;2023-04-10T00:32:29;101055.22;;;9.04;55.31
50702;BME280;36670;50.094;8.496;2023-04-10T00:34:55;101054.44;;;8.65;55.91
50702;BME280;36670;50.094;8.496;2023-04-10T00:37:20;101057.78;;;8.67;56.08
50702;BME280;36670;50.094;8.496;2023-04-10T00:39:45;101046.97;;;9.04;55.33
50702;BME280;36670;50.094;8.496;2023-04-10T00:42:11;101046.34;;;9.02;55.03
50702;BME280;36670;50.094;8.496;2023-04-10T00:44:36;101053.53;;;8.71;55.86
50702;BME280;36670;50.094;8.496;2023-04-10T00:47:05;101048.09;;;8.96;55.53
50702;BME280;36670;50.094;8.496;2023-04-10T00:49:31;101042.13;;;8.99;55.12
50702;BME280;36670;50.094;8.496;2023-04-10T00:51:57;101040.22;;;9.00;54.75
50702;BME280;36670;50.094;8.496;2023-04-10T00:54:22;101049.69;;;8.79;55.66
50702;BME280;36670;50.094;8.496;2023-04-10T00:56:51;101045.25;;;8.78;55.44
50702;BME280;36670;50.094;8.496;2023-04-10T00:59:25;101045.72;;;8.68;54.99
50702;BME280;36670;50.094;8.496;2023-04-10T01:01:51;101056.84;;;8.54;56.00
50702;BME280;36670;50.094;8.496;2023-04-10T01:04:16;101058.53;;;8.49;55.93
50702;BME280;36670;50.094;8.496;2023-04-10T01:06:57;101062.66;;;8.71;55.99
50702;BME280;36670;50.094;8.496;2023-04-10T01:15:07;101050.22;;;8.62;55.58
50702;BME280;36670;50.094;8.496;2023-04-10T01:20:23;101053.34;;;8.27;56.41
50702;BME280;36670;50.094;8.496;2023-04-10T01:25:55;101062.34;;;8.54;56.01
50702;BME280;36670;50.094;8.496;2023-04-10T01:29:00;101059.91;;;8.71;55.45
50702;BME280;36670;50.094;8.496;2023-04-10T01:31:36;101049.72;;;9.04;55.10
50702;BME280;36670;50.094;8.496;2023-04-10T01:34:13;101045.06;;;9.30;54.45
50702;BME280;36670;50.094;8.496;2023-04-10T01:36:48;101046.50;;;9.32;54.39
50702;BME280;36670;50.094;8.496;2023-04-10T01:39:17;101051.75;;;8.83;55.00
50702;BME280;36670;50.094;8.496;2023-04-10T01:41:43;101050.84;;;8.64;55.57
50702;BME280;36670;50.094;8.496;2023-04-10T01:44:12;101046.00;;;8.60;55.94
50702;BME280;36670;50.094;8.496;2023-04-10T01:46:39;101032.94;;;8.80;55.92
50702;BME280;36670;50.094;8.496;2023-04-10T01:49:05;101032.59;;;9.02;54.79
50702;BME280;36670;50.094;8.496;2023-04-10T01:51:31;101034.75;;;8.61;55.82
50702;BME280;36670;50.094;8.496;2023-04-10T01:53:59;101029.97;;;8.82;54.74
50702;BME280;36670;50.094;8.496;2023-04-10T01:56:26;101028.94;;;8.76;55.39
50702;BME280;36670;50.094;8.496;2023-04-10T01:58:52;101033.78;;;8.49;56.36
50702;BME280;36670;50.094;8.496;2023-04-10T02:01:19;101031.94;;;8.29;56.38
50702;BME280;36670;50.094;8.496;2023-04-10T02:03:45;101027.34;;;8.62;56.16
50702;BME280;36670;50.094;8.496;2023-04-10T02:06:25;101009.72;;;8.69;55.57
50702;BME280;36670;50.094;8.496;2023-04-10T02:09:04;101011.53;;;8.05;56.63
50702;BME280;36670;50.094;8.496;2023-04-10T02:11:43;101003.06;;;8.13;56.95
50702;BME280;36670;50.094;8.496;2023-04-10T02:14:15;101014.31;;;8.44;55.97
50702;BME280;36670;50.094;8.496;2023-04-10T02:16:42;101009.69;;;7.99;57.49
50702;BME280;36670;50.094;8.496;2023-04-10T02:19:09;101010.31;;;8.46;56.43
50702;BME280;36670;50.094;8.496;2023-04-10T02:21:35;100999.56;;;8.31;55.98
50702;BME280;36670;50.094;8.496;2023-04-10T02:24:02;101011.13;;;8.01;57.30
50702;BME280;36670;50.094;8.496;2023-04-10T02:26:27;101012.44;;;7.99;57.36
50702;BME280;36670;50.094;8.496;2023-04-10T02:28:53;101006.34;;;8.29;56.38
50702;BME280;36670;50.094;8.496;2023-04-10T02:31:18;101012.59;;;8.04;56.88
50702;BME280;36670;50.094;8.496;2023-04-10T02:33:43;101013.94;;;8.33;56.60
50702;BME280;36670;50.094;8.496;2023-04-10T02:36:08;101012.22;;;8.00;57.00
50702;BME280;36670;50.094;8.496;2023-04-10T02:38:34;101013.47;;;7.39;58.83
50702;BME280;36670;50.094;8.496;2023-04-10T02:40:59;101020.06;;;7.90;57.52
50702;BME280;36670;50.094;8.496;2023-04-10T02:43:25;101012.38;;;7.47;59.33
50702;BME280;36670;50.094;8.496;2023-04-10T02:45:50;101025.19;;;7.73;58.18
50702;BME280;36670;50.094;8.496;2023-04-10T02:48:16;101016.59;;;7.43;58.59
50702;BME280;36670;50.094;8.496;2023-04-10T02:50:41;101030.47;;;7.81;58.30
50702;BME280;36670;50.094;8.496;2023-04-10T02:53:12;101021.03;;;7.57;58.87
50702;BME280;36670;50.094;8.496;2023-04-10T02:55:38;101020.38;;;7.48;59.10
50702;BME280;36670;50.094;8.496;2023-04-10T02:58:03;101017.66;;;7.48;59.30
50702;BME280;36670;50.094;8.496;2023-04-10T03:00:29;101016.47;;;7.90;58.06
50702;BME280;36670;50.094;8.496;2023-04-10T03:02:55;101007.81;;;7.79;58.37
50702;BME280;36670;50.094;8.496;2023-04-10T03:05:20;101008.13;;;7.58;59.18
50702;BME280;36670;50.094;8.496;2023-04-10T03:07:45;100999.72;;;7.32;59.82
50702;BME280;36670;50.094;8.496;2023-04-10T03:10:11;100995.50;;;7.30;59.58
50702;BME280;36670;50.094;8.496;2023-04-10T03:12:36;100991.88;;;7.36;60.23
50702;BME280;36670;50.094;8.496;2023-04-10T03:15:01;100994.41;;;7.44;59.66
50702;BME280;36670;50.094;8.496;2023-04-10T03:17:27;100991.28;;;7.93;58.51
50702;BME280;36670;50.094;8.496;2023-04-10T03:19:52;100996.22;;;7.77;59.15
50702;BME280;36670;50.094;8.496;2023-04-10T03:22:17;100992.69;;;7.50;59.67
50702;BME280;36670;50.094;8.496;2023-04-10T03:24:42;100988.91;;;7.44;59.61
50702;BME280;36670;50.094;8.496;2023-04-10T03:27:08;100983.41;;;7.44;59.38
50702;BME280;36670;50.094;8.496;2023-04-10T03:29:33;100988.56;;;7.86;58.79
50702;BME280;36670;50.094;8.496;2023-04-10T03:31:59;100978.44;;;7.80;58.57
50702;BME280;36670;50.094;8.496;2023-04-10T03:34:24;100982.47;;;7.77;58.79
50702;BME280;36670;50.094;8.496;2023-04-10T03:36:50;100987.50;;;7.94;58.49
50702;BME280;36670;50.094;8.496;2023-04-10T03:39:15;100985.09;;;7.59;58.64
50702;BME280;36670;50.094;8.496;2023-04-10T03:41:40;100980.16;;;7.74;58.51
50702;BME280;36670;50.094;8.496;2023-04-10T03:44:06;100985.44;;;7.76;58.98
50702;BME280;36670;50.094;8.496;2023-04-10T03:46:31;100978.69;;;7.78;58.63
50702;BME280;36670;50.094;8.496;2023-04-10T03:48:56;100984.09;;;7.92;58.75
50702;BME280;36670;50.094;8.496;2023-04-10T03:51:22;100979.47;;;7.92;58.34
50702;BME280;36670;50.094;8.496;2023-04-10T03:53:48;100976.03;;;8.03;58.29
50702;BME280;36670;50.094;8.496;2023-04-10T03:56:15;100972.34;;;8.16;57.92
50702;BME280;36670;50.094;8.496;2023-04-10T03:58:40;100972.25;;;7.98;58.53
50702;BME280;36670;50.094;8.496;2023-04-10T04:01:06;100973.34;;;7.83;58.65
50702;BME280;36670;50.094;8.496;2023-04-10T04:03:31;100978.34;;;8.00;58.11
50702;BME280;36670;50.094;8.496;2023-04-10T04:05:56;100974.50;;;8.14;57.88
50702;BME280;36670;50.094;8.496;2023-04-10T04:08:22;100978.13;;;8.01;58.01
50702;BME280;36670;50.094;8.496;2023-04-10T04:10:47;100976.28;;;7.89;58.20
50702;BME280;36670;50.094;8.496;2023-04-10T04:13:12;100973.53;;;7.89;58.30
50702;BME280;36670;50.094;8.496;2023-04-10T04:15:38;100979.53;;;7.72;58.93
50702;BME280;36670;50.094;8.496;2023-04-10T04:18:03;100979.72;;;7.77;59.03
50702;BME280;36670;50.094;8.496;2023-04-10T04:20:28;100988.44;;;7.61;59.55
50702;BME280;36670;50.094;8.496;2023-04-10T04:22:54;100975.94;;;7.78;58.87
50702;BME280;36670;50.094;8.496;2023-04-10T04:25:19;100986.75;;;7.60;59.55
50702;BME280;36670;50.094;8.496;2023-04-10T04:27:44;100985.69;;;7.67;59.18
50702;BME280;36670;50.094;8.496;2023-04-10T04:30:10;100997.72;;;7.66;59.05
50702;BME280;36670;50.094;8.496;2023-04-10T04:32:35;100977.00;;;7.64;59.50
50702;BME280;36670;50.094;8.496;2023-04-10T04:35:01;100980.53;;;7.84;59.00
50702;BME280;36670;50.094;8.496;2023-04-10T04:37:26;100973.03;;;8.12;58.32
50702;BME280;36670;50.094;8.496;2023-04-10T04:39:52;100983.97;;;7.73;59.35
50702;BME280;36670;50.094;8.496;2023-04-10T04:42:17;100987.06;;;7.90;59.02
50702;BME280;36670;50.094;8.496;2023-04-10T04:44:43;100987.13;;;7.77;59.30
50702;BME280;36670;50.094;8.496;2023-04-10T04:47:08;100984.44;;;7.57;59.84
50702;BME280;36670;50.094;8.496;2023-04-10T04:49:33;100990.75;;;7.64;59.21
50702;BME280;36670;50.094;8.496;2023-04-10T04:51:59;100994.25;;;7.91;59.45
50702;BME280;36670;50.094;8.496;2023-04-10T04:54:24;100985.00;;;7.79;58.99
50702;BME280;36670;50.094;8.496;2023-04-10T04:56:49;100983.34;;;7.71;59.48
50702;BME280;36670;50.094;8.496;2023-04-10T04:59:15;100990.00;;;7.95;59.35
50702;BME280;36670;50.094;8.496;2023-04-10T05:01:40;100991.75;;;8.28;58.53
50702;BME280;36670;50.094;8.496;2023-04-10T05:04:05;100990.09;;;8.20;58.05
50702;BME280;36670;50.094;8.496;2023-04-10T05:06:31;100985.66;;;8.19;58.51
50702;BME280;36670;50.094;8.496;2023-04-10T05:08:56;100976.59;;;8.12;58.50
50702;BME280;36670;50.094;8.496;2023-04-10T05:11:21;100992.59;;;8.29;58.24
50702;BME280;36670;50.094;8.496;2023-04-10T05:13:47;100988.69;;;8.43;57.74
50702;BME280;36670;50.094;8.496;2023-04-10T05:16:12;100989.53;;;8.50;57.61
50702;BME280;36670;50.094;8.496;2023-04-10T05:18:37;100982.59;;;8.73;56.94
50702;BME280;36670;50.094;8.496;2023-04-10T05:21:03;100989.63;;;8.94;56.70
50702;BME280;36670;50.094;8.496;2023-04-10T05:23:28;100988.38;;;8.65;56.62
50702;BME280;36670;50.094;8.496;2023-04-10T05:25:54;100992.53;;;8.42;57.34
50702;BME280;36670;50.094;8.496;2023-04-10T05:28:19;100987.03;;;8.74;57.06
50702;BME280;36670;50.094;8.496;2023-04-10T05:30:45;100988.41;;;9.09;56.63
50702;BME280;36670;50.094;8.496;2023-04-10T05:33:10;100980.91;;;8.72;57.22
50702;BME280;36670;50.094;8.496;2023-04-10T05:35:35;100991.09;;;8.97;56.30
50702;BME280;36670;50.094;8.496;2023-04-10T05:38:00;100996.25;;;9.12;56.04
50702;BME280;36670;50.094;8.496;2023-04-10T05:40:27;100995.69;;;9.03;55.85
50702;BME280;36670;50.094;8.496;2023-04-10T05:42:52;100990.91;;;9.17;56.34
50702;BME280;36670;50.094;8.496;2023-04-10T05:45:17;100997.81;;;9.45;55.63
50702;BME280;36670;50.094;8.496;2023-04-10T05:47:43;100989.09;;;9.29;55.52
50702;BME280;36670;50.094;8.496;2023-04-10T05:50:09;100992.72;;;9.48;55.23
50702;BME280;36670;50.094;8.496;2023-04-10T05:52:34;100998.09;;;9.80;54.57
50702;BME280;36670;50.094;8.496;2023-04-10T05:55:00;100997.78;;;9.88;54.09
50702;BME280;36670;50.094;8.496;2023-04-10T05:57:25;100995.50;;;9.85;53.97
50702;BME280;36670;50.094;8.496;2023-04-10T05:59:50;100998.03;;;10.17;53.82
50702;BME280;36670;50.094;8.496;2023-04-10T06:02:16;100992.63;;;10.11;54.00
50702;BME280;36670;50.094;8.496;2023-04-10T06:04:41;100994.19;;;10.37;53.79
50702;BME280;36670;50.094;8.496;2023-04-10T06:07:07;100987.75;;;10.97;52.13
50702;BME280;36670;50.094;8.496;2023-04-10T06:09:32;100989.88;;;11.42;52.12
50702;BME280;36670;50.094;8.496;2023-04-10T06:12:01;100988.03;;;11.84;51.26
50702;BME280;36670;50.094;8.496;2023-04-10T06:14:33;100984.44;;;11.95;49.71
50702;BME280;36670;50.094;8.496;2023-04-10T06:16:59;100983.75;;;12.17;50.67
50702;BME280;36670;50.094;8.496;2023-04-10T06:19:24;100978.56;;;13.34;48.89
50702;BME280;36670;50.094;8.496;2023-04-10T06:21:49;100970.91;;;13.80;46.83
50702;BME280;36670;50.094;8.496;2023-04-10T06:24:15;100968.66;;;13.99;46.00
50702;BME280;36670;50.094;8.496;2023-04-10T06:26:40;100961.19;;;14.27;45.93
50702;BME280;36670;50.094;8.496;2023-04-10T06:29:06;100970.25;;;13.95;46.57
50702;BME280;36670;50.094;8.496;2023-04-10T06:31:34;100973.19;;;14.06;45.12
50702;BME280;36670;50.094;8.496;2023-04-10T06:34:00;100969.44;;;13.95;45.51
50702;BME280;36670;50.094;8.496;2023-04-10T06:36:25;100974.53;;;13.25;46.42
50702;BME280;36670;50.094;8.496;2023-04-10T06:38:51;100983.44;;;12.76;47.94
50702;BME280;36670;50.094;8.496;2023-04-10T06:41:17;100968.50;;;13.45;47.39
50702;BME280;36670;50.094;8.496;2023-04-10T06:43:42;100973.19;;;14.06;45.20
50702;BME280;36670;50.094;8.496;2023-04-10T06:46:07;100972.50;;;13.98;45.43
50702;BME280;36670;50.094;8.496;2023-04-10T06:48:33;100979.22;;;13.80;45.14
50702;BME280;36670;50.094;8.496;2023-04-10T06:50:58;100970.59;;;13.99;45.91
50702;BME280;36670;50.094;8.496;2023-04-10T06:53:27;100981.81;;;14.09;44.80
50702;BME280;36670;50.094;8.496;2023-04-10T06:55:52;100987.00;;;12.88;46.11
50702;BME280;36670;50.094;8.496;2023-04-10T06:58:17;100978.28;;;12.34;47.86
50702;BME280;36670;50.094;8.496;2023-04-10T07:00:43;100982.88;;;12.28;47.98
50702;BME280;36670;50.094;8.496;2023-04-10T07:03:08;100971.66;;;12.06;48.33
50702;BME280;36670;50.094;8.496;2023-04-10T07:05:37;100971.25;;;12.14;48.50
50702;BME280;36670;50.094;8.496;2023-04-10T07:08:06;100978.69;;;12.13;49.15
50702;BME280;36670;50.094;8.496;2023-04-10T07:10:34;100980.19;;;11.92;49.07
50702;BME280;36670;50.094;8.496;2023-04-10T07:13:00;100983.13;;;11.74;50.11
50702;BME280;36670;50.094;8.496;2023-04-10T07:15:26;100974.81;;;11.86;50.16
50702;BME280;36670;50.094;8.496;2023-04-10T07:17:55;100972.09;;;12.43;48.61
50702;BME280;36670;50.094;8.496;2023-04-10T07:20:20;100968.03;;;12.05;49.31
50702;BME280;36670;50.094;8.496;2023-04-10T07:22:46;100965.47;;;12.44;48.72
50702;BME280;36670;50.094;8.496;2023-04-10T07:25:11;100958.44;;;12.71;47.71
50702;BME280;36670;50.094;8.496;2023-04-10T07:27:48;100970.50;;;12.64;47.86
50702;BME280;36670;50.094;8.496;2023-04-10T07:30:13;100957.69;;;12.58;47.98
50702;BME280;36670;50.094;8.496;2023-04-10T07:32:38;100959.19;;;12.66;48.19
50702;BME280;36670;50.094;8.496;2023-04-10T07:35:06;100951.13;;;12.48;48.73
50702;BME280;36670;50.094;8.496;2023-04-10T07:37:31;100957.19;;;12.33;49.27
50702;BME280;36670;50.094;8.496;2023-04-10T07:39:57;100949.97;;;12.32;49.26
50702;BME280;36670;50.094;8.496;2023-04-10T07:42:24;100949.03;;;12.72;47.56
50702;BME280;36670;50.094;8.496;2023-04-10T07:44:50;100952.41;;;12.91;47.84
50702;BME280;36670;50.094;8.496;2023-04-10T07:47:16;100953.22;;;13.25;47.80
50702;BME280;36670;50.094;8.496;2023-04-10T07:49:42;100950.25;;;13.71;46.24
50702;BME280;36670;50.094;8.496;2023-04-10T07:52:10;100948.81;;;13.46;46.14
50702;BME280;36670;50.094;8.496;2023-04-10T07:54:36;100949.53;;;13.20;45.73
50702;BME280;36670;50.094;8.496;2023-04-10T07:57:01;100946.25;;;13.62;46.21
50702;BME280;36670;50.094;8.496;2023-04-10T07:59:26;100944.19;;;13.52;46.16
50702;BME280;36670;50.094;8.496;2023-04-10T08:01:55;100938.19;;;13.82;46.22
50702;BME280;36670;50.094;8.496;2023-04-10T08:04:20;100944.59;;;14.32;44.76
50702;BME280;36670;50.094;8.496;2023-04-10T08:06:45;100933.81;;;14.14;44.30
50702;BME280;36670;50.094;8.496;2023-04-10T08:09:15;100920.06;;;14.24;43.80
50702;BME280;36670;50.094;8.496;2023-04-10T08:11:44;100913.56;;;14.41;44.77
50702;BME280;36670;50.094;8.496;2023-04-10T08:14:09;100916.75;;;14.60;43.25
50702;BME280;36670;50.094;8.496;2023-04-10T08:16:35;100912.25;;;14.81;43.88
50702;BME280;36670;50.094;8.496;2023-04-10T08:19:01;100911.94;;;14.77;44.01
50702;BME280;36670;50.094;8.496;2023-04-10T08:21:30;100915.97;;;14.97;43.17
50702;BME280;36670;50.094;8.496;2023-04-10T08:24:00;100894.69;;;15.13;43.48
50702;BME280;36670;50.094;8.496;2023-04-10T08:26:29;100898.69;;;14.90;43.26
50702;BME280;36670;50.094;8.496;2023-04-10T08:28:55;100891.81;;;15.02;43.99
50702;BME280;36670;50.094;8.496;2023-04-10T08:31:22;100889.72;;;15.25;43.14
50702;BME280;36670;50.094;8.496;2023-04-10T08:33:48;100887.88;;;15.41;42.25
50702;BME280;36670;50.094;8.496;2023-04-10T08:36:15;100887.16;;;15.77;42.93
50702;BME280;36670;50.094;8.496;2023-04-10T08:38:41;100878.66;;;16.04;42.20
50702;BME280;36670;50.094;8.496;2023-04-10T08:41:09;100879.44;;;15.89;42.18
50702;BME280;36670;50.094;8.496;2023-04-10T08:43:35;100881.19;;;16.21;43.00
50702;BME280;36670;50.094;8.496;2023-04-10T08:46:00;100870.06;;;16.83;41.50
50702;BME280;36670;50.094;8.496;2023-04-10T08:50:59;100865.59;;;16.92;41.39
50702;BME280;36670;50.094;8.496;2023-04-10T08:53:27;100859.28;;;17.57;40.08
50702;BME280;36670;50.094;8.496;2023-04-10T08:55:54;100865.06;;;17.71;39.05
50702;BME280;36670;50.094;8.496;2023-04-10T08:58:20;100852.63;;;17.43;37.68
50702;BME280;36670;50.094;8.496;2023-04-10T09:00:45;100856.19;;;17.58;38.78
50702;BME280;36670;50.094;8.496;2023-04-10T09:03:11;100851.00;;;17.86;39.77
50702;BME280;36670;50.094;8.496;2023-04-10T09:05:39;100845.38;;;18.41;38.47
50702;BME280;36670;50.094;8.496;2023-04-10T09:08:06;100843.72;;;18.35;38.07
50702;BME280;36670;50.094;8.496;2023-04-10T09:10:32;100837.63;;;17.88;37.20
50702;BME280;36670;50.094;8.496;2023-04-10T09:12:57;100829.28;;;17.78;37.77
50702;BME280;36670;50.094;8.496;2023-04-10T09:15:23;100823.97;;;17.82;37.88
50702;BME280;36670;50.094;8.496;2023-04-10T09:17:57;100825.69;;;18.17;37.52
50702;BME280;36670;50.094;8.496;2023-04-10T09:20:24;100820.91;;;18.23;36.91
50702;BME280;36670;50.094;8.496;2023-04-10T09:22:52;100813.22;;;18.04;36.12
50702;BME280;36670;50.094;8.496;2023-04-10T09:25:33;100810.81;;;18.27;36.96
50702;BME280;36670;50.094;8.496;2023-04-10T09:28:00;100811.59;;;17.98;35.85
50702;BME280;36670;50.094;8.496;2023-04-10T09:30:38;100808.72;;;17.58;36.75
50702;BME280;36670;50.094;8.496;2023-04-10T09:33:24;100801.44;;;18.07;36.14
50702;BME280;36670;50.094;8.496;2023-04-10T09:35:57;100803.03;;;18.19;36.20
50702;BME280;36670;50.094;8.496;2023-04-10T09:38:24;100796.34;;;18.20;36.60
50702;BME280;36670;50.094;8.496;2023-04-10T09:40:50;100789.53;;;18.31;36.99
50702;BME280;36670;50.094;8.496;2023-04-10T09:43:20;100789.81;;;18.59;37.26
50702;BME280;36670;50.094;8.496;2023-04-10T09:45:47;100785.47;;;19.25;36.59
50702;BME280;36670;50.094;8.496;2023-04-10T09:48:15;100778.56;;;19.18;35.98
50702;BME280;36670;50.094;8.496;2023-04-10T09:50:40;100778.72;;;19.51;36.51
50702;BME280;36670;50.094;8.496;2023-04-10T09:53:15;100778.13;;;19.73;34.83
50702;BME280;36670;50.094;8.496;2023-04-10T09:55:44;100775.09;;;19.26;33.35
50702;BME280;36670;50.094;8.496;2023-04-10T09:58:14;100770.44;;;18.97;34.80
50702;BME280;36670;50.094;8.496;2023-04-10T10:00:47;100752.34;;;18.84;34.79
50702;BME280;36670;50.094;8.496;2023-04-10T10:03:15;100760.91;;;18.69;34.65
50702;BME280;36670;50.094;8.496;2023-04-10T10:05:43;100748.06;;;18.97;34.53
50702;BME280;36670;50.094;8.496;2023-04-10T10:08:09;100748.38;;;19.15;34.67
50702;BME280;36670;50.094;8.496;2023-04-10T10:10:39;100739.78;;;19.30;34.78
50702;BME280;36670;50.094;8.496;2023-04-10T10:13:07;100740.41;;;19.46;33.95
50702;BME280;36670;50.094;8.496;2023-04-10T10:18:40;100735.09;;;19.25;33.28
50702;BME280;36670;50.094;8.496;2023-04-10T10:21:09;100726.63;;;19.50;33.76
50702;BME280;36670;50.094;8.496;2023-04-10T10:23:35;100724.06;;;19.53;34.52
50702;BME280;36670;50.094;8.496;2023-04-10T10:26:04;100709.38;;;20.13;33.05
50702;BME280;36670;50.094;8.496;2023-04-10T10:28:32;100708.00;;;19.97;33.37
50702;BME280;36670;50.094;8.496;2023-04-10T10:30:59;100704.47;;;20.38;33.51
50702;BME280;36670;50.094;8.496;2023-04-10T10:33:28;100696.94;;;20.80;31.96
50702;BME280;36670;50.094;8.496;2023-04-10T10:35:58;100693.16;;;20.57;33.58
50702;BME280;36670;50.094;8.496;2023-04-10T10:38:25;100688.38;;;21.13;32.72
50702;BME280;36670;50.094;8.496;2023-04-10T10:41:04;100683.78;;;21.18;31.62
50702;BME280;36670;50.094;8.496;2023-04-10T10:43:48;100678.22;;;20.90;31.74
50702;BME280;36670;50.094;8.496;2023-04-10T10:46:34;100681.00;;;20.62;32.35
50702;BME280;36670;50.094;8.496;2023-04-10T10:49:02;100676.66;;;21.11;32.00
50702;BME280;36670;50.094;8.496;2023-04-10T10:51:47;100670.00;;;21.07;31.53
50702;BME280;36670;50.094;8.496;2023-04-10T10:54:29;100662.28;;;21.13;31.74
50702;BME280;36670;50.094;8.496;2023-04-10T10:57:02;100650.31;;;21.80;32.00
50702;BME280;36670;50.094;8.496;2023-04-10T11:02:16;100647.94;;;22.28;31.84
50702;BME280;36670;50.094;8.496;2023-04-10T11:07:12;100636.09;;;22.08;30.92
50702;BME280;36670;50.094;8.496;2023-04-10T11:09:52;100623.06;;;22.21;30.23
50702;BME280;36670;50.094;8.496;2023-04-10T11:12:24;100615.00;;;21.65;29.96
50702;BME280;36670;50.094;8.496;2023-04-10T11:15:00;100602.97;;;21.51;29.46
50702;BME280;36670;50.094;8.496;2023-04-10T11:17:45;100600.59;;;21.22;30.31
50702;BME280;36670;50.094;8.496;2023-04-10T11:20:12;100595.25;;;21.34;31.21
50702;BME280;36670;50.094;8.496;2023-04-10T11:23:15;100588.16;;;21.37;27.72
50702;BME280;36670;50.094;8.496;2023-04-10T11:25:52;100596.06;;;21.35;28.71
50702;BME280;36670;50.094;8.496;2023-04-10T11:28:34;100587.56;;;21.48;28.22
50702;BME280;36670;50.094;8.496;2023-04-10T11:31:25;100587.25;;;21.50;29.09
50702;BME280;36670;50.094;8.496;2023-04-10T11:34:04;100586.09;;;21.96;28.67
50702;BME280;36670;50.094;8.496;2023-04-10T11:36:31;100583.44;;;22.00;27.21
50702;BME280;36670;50.094;8.496;2023-04-10T11:39:05;100576.66;;;21.92;27.17
50702;BME280;36670;50.094;8.496;2023-04-10T11:41:36;100580.41;;;21.88;27.23
50702;BME280;36670;50.094;8.496;2023-04-10T11:46:54;100570.31;;;22.18;26.95
50702;BME280;36670;50.094;8.496;2023-04-10T11:49:21;100568.81;;;22.61;27.92
50702;BME280;36670;50.094;8.496;2023-04-10T11:51:48;100558.81;;;22.37;26.87
50702;BME280;36670;50.094;8.496;2023-04-10T11:54:17;100556.00;;;21.97;26.88
50702;BME280;36670;50.094;8.496;2023-04-10T11:56:55;100554.38;;;22.05;27.28
50702;BME280;36670;50.094;8.496;2023-04-10T11:59:22;100557.94;;;22.28;27.36
50702;BME280;36670;50.094;8.496;2023-04-10T12:01:48;100544.25;;;21.95;27.03
50702;BME280;36670;50.094;8.496;2023-04-10T12:04:18;100548.13;;;22.16;27.57
50702;BME280;36670;50.094;8.496;2023-04-10T12:06:48;100554.44;;;22.22;26.74
50702;BME280;36670;50.094;8.496;2023-04-10T12:09:15;100538.44;;;22.31;26.54
50702;BME280;36670;50.094;8.496;2023-04-10T12:12:10;100536.19;;;22.60;26.54
50702;BME280;36670;50.094;8.496;2023-04-10T12:14:37;100528.84;;;22.32;26.19
50702;BME280;36670;50.094;8.496;2023-04-10T12:17:06;100524.78;;;22.07;25.65
50702;BME280;36670;50.094;8.496;2023-04-10T12:19:32;100526.75;;;21.98;25.78
50702;BME280;36670;50.094;8.496;2023-04-10T12:21:58;100532.03;;;22.40;26.21
50702;BME280;36670;50.094;8.496;2023-04-10T12:24:46;100526.56;;;22.43;25.87
50702;BME280;36670;50.094;8.496;2023-04-10T12:27:21;100518.16;;;22.52;26.01
50702;BME280;36670;50.094;8.496;2023-04-10T12:29:48;100527.13;;;23.33;26.00
50702;BME280;36670;50.094;8.496;2023-04-10T12:32:14;100503.34;;;23.60;24.53
50702;BME280;36670;50.094;8.496;2023-04-10T12:34:40;100507.19;;;23.56;25.69
50702;BME280;36670;50.094;8.496;2023-04-10T12:37:06;100500.38;;;23.65;24.40
50702;BME280;36670;50.094;8.496;2023-04-10T12:39:32;100503.63;;;22.94;24.70
50702;BME280;36670;50.094;8.496;2023-04-10T12:42:17;100498.47;;;23.05;24.66
50702;BME280;36670;50.094;8.496;2023-04-10T12:47:16;100497.66;;;22.69;23.86
50702;BME280;36670;50.094;8.496;2023-04-10T12:49:41;100492.56;;;22.22;24.59
50702;BME280;36670;50.094;8.496;2023-04-10T12:52:06;100490.22;;;22.64;24.65
50702;BME280;36670;50.094;8.496;2023-04-10T12:54:34;100480.94;;;22.81;24.98
50702;BME280;36670;50.094;8.496;2023-04-10T12:57:00;100471.31;;;22.91;23.64
50702;BME280;36670;50.094;8.496;2023-04-10T12:59:27;100485.41;;;22.91;25.14
50702;BME280;36670;50.094;8.496;2023-04-10T13:01:53;100475.88;;;23.48;25.17
50702;BME280;36670;50.094;8.496;2023-04-10T13:04:18;100471.19;;;23.61;25.57
50702;BME280;36670;50.094;8.496;2023-04-10T13:06:44;100465.91;;;23.60;25.11
50702;BME280;36670;50.094;8.496;2023-04-10T13:09:11;100461.03;;;23.78;25.67
50702;BME280;36670;50.094;8.496;2023-04-10T13:11:37;100468.41;;;23.52;26.05
50702;BME280;36670;50.094;8.496;2023-04-10T13:14:02;100462.03;;;23.26;26.21
50702;BME280;36670;50.094;8.496;2023-04-10T13:16:27;100458.69;;;23.41;26.75
50702;BME280;36670;50.094;8.496;2023-04-10T13:18:53;100456.59;;;23.68;26.39
50702;BME280;36670;50.094;8.496;2023-04-10T13:21:18;100452.84;;;23.46;25.88
50702;BME280;36670;50.094;8.496;2023-04-10T13:23:47;100445.81;;;23.05;26.46
50702;BME280;36670;50.094;8.496;2023-04-10T13:26:12;100447.66;;;22.92;26.16